sensor_id;sensor_type;location;lat;lon;timestamp;pressure;altitude;pressure_sealevel;temperature;humidity
78206;BME280;67480;48.920;12.880;2023-06-26T00:00:43;97142.56;;;19.52;48.61
78206;BME280;67480;48.920;12.880;2023-06-26T00:03:08;97135.56;;;19.55;48.88
78206;BME280;67480;48.920;12.880;2023-06-26T00:05:33;97144.31;;;19.68;48.27
78206;BME280;67480;48.920;12.880;2023-06-26T00:07:59;97144.75;;;19.70;48.54
78206;BME280;67480;48.920;12.880;2023-06-26T00:10:26;97137.28;;;19.67;48.58
78206;BME280;67480;48.920;12.880;2023-06-26T00:12:52;97129.50;;;19.69;48.33
78206;BME280;67480;48.920;12.880;2023-06-26T00:15:17;97137.72;;;19.69;48.07
78206;BME280;67480;48.920;12.880;2023-06-26T00:17:42;97138.16;;;19.74;47.67
78206;BME280;67480;48.920;12.880;2023-06-26T00:20:10;97140.84;;;19.71;47.64
78206;BME280;67480;48.920;12.880;2023-06-26T00:22:35;97146.91;;;19.83;47.97
78206;BME280;67480;48.920;12.880;2023-06-26T00:25:00;97149.34;;;19.65;47.92
78206;BME280;67480;48.920;12.880;2023-06-26T00:27:26;97146.19;;;19.60;48.28
78206;BME280;67480;48.920;12.880;2023-06-26T00:29:51;97143.81;;;19.58;48.21
78206;BME280;67480;48.920;12.880;2023-06-26T00:32:18;97134.81;;;19.58;48.20
78206;BME280;67480;48.920;12.880;2023-06-26T00:34:43;97142.19;;;19.54;48.71
78206;BME280;67480;48.920;12.880;2023-06-26T00:37:08;97133.94;;;19.50;48.59
78206;BME280;67480;48.920;12.880;2023-06-26T00:39:33;97136.69;;;19.50;48.59
78206;BME280;67480;48.920;12.880;2023-06-26T00:41:59;97141.00;;;19.55;48.56
78206;BME280;67480;48.920;12.880;2023-06-26T00:44:24;97137.34;;;19.43;48.87
78206;BME280;67480;48.920;12.880;2023-06-26T00:46:49;97138.03;;;19.37;48.97
78206;BME280;67480;48.920;12.880;2023-06-26T00:49:15;97140.34;;;19.35;48.99
78206;BME280;67480;48.920;12.880;2023-06-26T00:51:41;97128.22;;;19.32;49.23
78206;BME280;67480;48.920;12.880;2023-06-26T00:54:06;97137.38;;;19.20;49.24
78206;BME280;67480;48.920;12.880;2023-06-26T00:56:32;97133.56;;;19.25;48.94
78206;BME280;67480;48.920;12.880;2023-06-26T00:58:58;97129.22;;;19.20;49.29
78206;BME280;67480;48.920;12.880;2023-06-26T01:01:23;97128.47;;;19.23;49.28
78206;BME280;67480;48.920;12.880;2023-06-26T01:03:51;97131.22;;;19.23;49.06
78206;BME280;67480;48.920;12.880;2023-06-26T01:06:17;97126.47;;;19.20;49.51
78206;BME280;67480;48.920;12.880;2023-06-26T01:08:44;97132.25;;;19.15;49.58
78206;BME280;67480;48.920;12.880;2023-06-26T01:11:10;97124.06;;;19.15;49.48
78206;BME280;67480;48.920;12.880;2023-06-26T01:13:36;97129.44;;;19.08;49.47
78206;BME280;67480;48.920;12.880;2023-06-26T01:16:01;97127.88;;;19.10;49.58
78206;BME280;67480;48.920;12.880;2023-06-26T01:18:28;97130.19;;;19.08;49.70
78206;BME280;67480;48.920;12.880;2023-06-26T01:20:55;97125.97;;;19.11;49.75
78206;BME280;67480;48.920;12.880;2023-06-26T01:23:37;97130.25;;;19.12;49.39
78206;BME280;67480;48.920;12.880;2023-06-26T01:26:29;97135.03;;;18.96;50.14
78206;BME280;67480;48.920;12.880;2023-06-26T01:28:56;97131.88;;;18.93;49.96
78206;BME280;67480;48.920;12.880;2023-06-26T01:31:24;97130.88;;;19.02;49.81
78206;BME280;67480;48.920;12.880;2023-06-26T01:33:49;97125.84;;;19.04;49.73
78206;BME280;67480;48.920;12.880;2023-06-26T01:36:14;97128.88;;;18.99;49.96
78206;BME280;67480;48.920;12.880;2023-06-26T01:38:40;97122.38;;;18.84;50.22
78206;BME280;67480;48.920;12.880;2023-06-26T01:41:06;97126.75;;;18.88;50.30
78206;BME280;67480;48.920;12.880;2023-06-26T01:48:46;97119.66;;;18.84;50.10
78206;BME280;67480;48.920;12.880;2023-06-26T01:51:13;97116.91;;;18.84;50.32
78206;BME280;67480;48.920;12.880;2023-06-26T01:53:44;97110.38;;;18.88;49.93
78206;BME280;67480;48.920;12.880;2023-06-26T01:56:13;97112.84;;;18.97;49.72
78206;BME280;67480;48.920;12.880;2023-06-26T01:58:43;97123.84;;;19.01;49.74
78206;BME280;67480;48.920;12.880;2023-06-26T02:01:09;97119.59;;;19.03;49.49
78206;BME280;67480;48.920;12.880;2023-06-26T02:03:34;97115.69;;;19.04;49.73
78206;BME280;67480;48.920;12.880;2023-06-26T02:05:59;97121.56;;;19.03;49.71
78206;BME280;67480;48.920;12.880;2023-06-26T02:08:25;97123.06;;;19.00;49.67
78206;BME280;67480;48.920;12.880;2023-06-26T02:10:50;97114.97;;;18.84;50.16
78206;BME280;67480;48.920;12.880;2023-06-26T02:13:15;97122.00;;;18.85;50.20
78206;BME280;67480;48.920;12.880;2023-06-26T02:15:40;97117.03;;;18.91;50.03
78206;BME280;67480;48.920;12.880;2023-06-26T02:18:06;97114.63;;;18.86;49.82
78206;BME280;67480;48.920;12.880;2023-06-26T02:20:31;97117.38;;;18.89;49.92
78206;BME280;67480;48.920;12.880;2023-06-26T02:22:58;97116.25;;;18.90;49.99
78206;BME280;67480;48.920;12.880;2023-06-26T02:25:23;97122.13;;;18.92;50.05
78206;BME280;67480;48.920;12.880;2023-06-26T02:27:49;97118.06;;;18.83;50.14
78206;BME280;67480;48.920;12.880;2023-06-26T02:30:14;97122.97;;;18.97;49.65
78206;BME280;67480;48.920;12.880;2023-06-26T02:32:39;97117.84;;;18.91;49.63
78206;BME280;67480;48.920;12.880;2023-06-26T02:35:05;97117.47;;;18.93;49.74
78206;BME280;67480;48.920;12.880;2023-06-26T02:37:30;97123.22;;;18.88;49.72
78206;BME280;67480;48.920;12.880;2023-06-26T02:39:56;97126.03;;;18.91;49.38
78206;BME280;67480;48.920;12.880;2023-06-26T02:42:21;97126.06;;;18.95;49.36
78206;BME280;67480;48.920;12.880;2023-06-26T02:44:46;97125.66;;;18.93;49.47
78206;BME280;67480;48.920;12.880;2023-06-26T02:47:12;97122.06;;;18.89;49.66
78206;BME280;67480;48.920;12.880;2023-06-26T02:49:37;97118.13;;;18.86;49.82
78206;BME280;67480;48.920;12.880;2023-06-26T02:52:02;97119.59;;;18.80;49.84
78206;BME280;67480;48.920;12.880;2023-06-26T02:54:28;97128.59;;;18.84;49.97
78206;BME280;67480;48.920;12.880;2023-06-26T02:56:53;97121.97;;;18.82;49.54
78206;BME280;67480;48.920;12.880;2023-06-26T02:59:18;97126.91;;;18.76;49.63
78206;BME280;67480;48.920;12.880;2023-06-26T03:01:44;97126.50;;;18.74;50.06
78206;BME280;67480;48.920;12.880;2023-06-26T03:04:09;97126.84;;;18.72;49.92
78206;BME280;67480;48.920;12.880;2023-06-26T03:06:35;97135.03;;;18.72;49.83
78206;BME280;67480;48.920;12.880;2023-06-26T03:09:00;97129.59;;;18.72;49.72
78206;BME280;67480;48.920;12.880;2023-06-26T03:11:26;97129.22;;;18.74;49.95
78206;BME280;67480;48.920;12.880;2023-06-26T03:13:51;97129.63;;;18.76;49.87
78206;BME280;67480;48.920;12.880;2023-06-26T03:16:16;97125.72;;;18.73;49.86
78206;BME280;67480;48.920;12.880;2023-06-26T03:18:42;97129.84;;;18.64;50.25
78206;BME280;67480;48.920;12.880;2023-06-26T03:21:08;97132.97;;;18.66;50.27
78206;BME280;67480;48.920;12.880;2023-06-26T03:23:34;97130.97;;;18.63;50.04
78206;BME280;67480;48.920;12.880;2023-06-26T03:25:59;97131.16;;;18.73;49.98
78206;BME280;67480;48.920;12.880;2023-06-26T03:28:24;97133.16;;;18.77;49.53
78206;BME280;67480;48.920;12.880;2023-06-26T03:30:50;97137.34;;;18.70;49.91
78206;BME280;67480;48.920;12.880;2023-06-26T03:33:15;97137.75;;;18.72;50.02
78206;BME280;67480;48.920;12.880;2023-06-26T03:35:40;97144.41;;;18.75;49.70
78206;BME280;67480;48.920;12.880;2023-06-26T03:38:06;97137.34;;;18.70;49.99
78206;BME280;67480;48.920;12.880;2023-06-26T03:40:31;97136.00;;;18.61;50.28
78206;BME280;67480;48.920;12.880;2023-06-26T03:42:56;97134.25;;;18.72;50.21
78206;BME280;67480;48.920;12.880;2023-06-26T03:45:22;97139.22;;;18.66;50.51
78206;BME280;67480;48.920;12.880;2023-06-26T03:47:47;97134.06;;;18.61;50.44
78206;BME280;67480;48.920;12.880;2023-06-26T03:50:17;97135.69;;;18.66;50.57
78206;BME280;67480;48.920;12.880;2023-06-26T03:52:43;97136.06;;;18.64;50.75
78206;BME280;67480;48.920;12.880;2023-06-26T03:55:09;97134.16;;;18.68;50.74
78206;BME280;67480;48.920;12.880;2023-06-26T03:57:34;97136.19;;;18.71;50.64
78206;BME280;67480;48.920;12.880;2023-06-26T04:00:04;97137.19;;;18.63;51.03
78206;BME280;67480;48.920;12.880;2023-06-26T04:02:38;97137.88;;;18.56;51.11
78206;BME280;67480;48.920;12.880;2023-06-26T04:05:04;97135.19;;;18.60;50.89
78206;BME280;67480;48.920;12.880;2023-06-26T04:07:30;97138.28;;;18.59;51.24
78206;BME280;67480;48.920;12.880;2023-06-26T04:09:59;97135.66;;;18.62;51.19
78206;BME280;67480;48.920;12.880;2023-06-26T04:12:24;97136.13;;;18.68;51.38
78206;BME280;67480;48.920;12.880;2023-06-26T04:14:50;97135.47;;;18.74;51.32
78206;BME280;67480;48.920;12.880;2023-06-26T04:17:15;97140.97;;;18.78;51.23
78206;BME280;67480;48.920;12.880;2023-06-26T04:19:40;97135.34;;;18.90;51.29
78206;BME280;67480;48.920;12.880;2023-06-26T04:22:06;97134.47;;;18.86;51.44
78206;BME280;67480;48.920;12.880;2023-06-26T04:24:31;97137.75;;;18.96;51.11
78206;BME280;67480;48.920;12.880;2023-06-26T04:26:56;97140.25;;;19.04;51.10
78206;BME280;67480;48.920;12.880;2023-06-26T04:29:22;97131.53;;;18.95;51.21
78206;BME280;67480;48.920;12.880;2023-06-26T04:31:53;97138.28;;;19.01;51.35
78206;BME280;67480;48.920;12.880;2023-06-26T04:34:26;97140.75;;;19.10;51.28
78206;BME280;67480;48.920;12.880;2023-06-26T04:36:51;97136.97;;;19.18;51.00
78206;BME280;67480;48.920;12.880;2023-06-26T04:39:16;97143.28;;;19.22;51.36
78206;BME280;67480;48.920;12.880;2023-06-26T04:41:42;97144.38;;;19.18;51.42
78206;BME280;67480;48.920;12.880;2023-06-26T04:44:07;97141.69;;;19.21;51.37
78206;BME280;67480;48.920;12.880;2023-06-26T04:46:32;97140.13;;;19.20;51.79
78206;BME280;67480;48.920;12.880;2023-06-26T04:48:58;97140.97;;;19.24;51.78
78206;BME280;67480;48.920;12.880;2023-06-26T04:51:25;97135.56;;;19.28;51.48
78206;BME280;67480;48.920;12.880;2023-06-26T04:53:52;97130.88;;;19.28;51.85
78206;BME280;67480;48.920;12.880;2023-06-26T04:56:17;97123.81;;;19.24;52.14
78206;BME280;67480;48.920;12.880;2023-06-26T04:58:42;97125.03;;;19.26;52.14
78206;BME280;67480;48.920;12.880;2023-06-26T05:01:08;97134.47;;;19.33;52.26
78206;BME280;67480;48.920;12.880;2023-06-26T05:03:33;97134.25;;;19.45;52.29
78206;BME280;67480;48.920;12.880;2023-06-26T05:05:59;97131.88;;;19.43;52.39
78206;BME280;67480;48.920;12.880;2023-06-26T05:08:26;97135.19;;;19.56;52.39
78206;BME280;67480;48.920;12.880;2023-06-26T05:10:52;97143.06;;;19.61;52.47
78206;BME280;67480;48.920;12.880;2023-06-26T05:13:24;97145.13;;;19.68;52.13
78206;BME280;67480;48.920;12.880;2023-06-26T05:15:51;97143.16;;;19.69;52.61
78206;BME280;67480;48.920;12.880;2023-06-26T05:18:16;97135.88;;;19.76;52.36
78206;BME280;67480;48.920;12.880;2023-06-26T05:20:42;97141.41;;;19.80;52.67
78206;BME280;67480;48.920;12.880;2023-06-26T05:23:07;97137.50;;;19.81;53.00
78206;BME280;67480;48.920;12.880;2023-06-26T05:25:33;97143.47;;;19.90;52.77
78206;BME280;67480;48.920;12.880;2023-06-26T05:28:01;97143.22;;;19.99;51.97
78206;BME280;67480;48.920;12.880;2023-06-26T05:30:28;97139.06;;;20.12;51.96
78206;BME280;67480;48.920;12.880;2023-06-26T05:32:54;97139.53;;;20.22;51.51
78206;BME280;67480;48.920;12.880;2023-06-26T05:35:22;97146.34;;;20.35;51.90
78206;BME280;67480;48.920;12.880;2023-06-26T05:37:49;97140.59;;;20.44;51.60
78206;BME280;67480;48.920;12.880;2023-06-26T05:40:16;97139.91;;;20.54;51.43
78206;BME280;67480;48.920;12.880;2023-06-26T05:42:42;97145.47;;;20.61;51.24
78206;BME280;67480;48.920;12.880;2023-06-26T05:45:08;97147.09;;;20.66;51.52
78206;BME280;67480;48.920;12.880;2023-06-26T05:47:34;97149.16;;;20.80;51.07
78206;BME280;67480;48.920;12.880;2023-06-26T05:49:59;97148.44;;;20.86;50.86
78206;BME280;67480;48.920;12.880;2023-06-26T05:52:25;97147.72;;;20.93;51.04
78206;BME280;67480;48.920;12.880;2023-06-26T05:54:50;97139.53;;;20.97;51.05
78206;BME280;67480;48.920;12.880;2023-06-26T05:57:16;97147.81;;;21.04;51.44
78206;BME280;67480;48.920;12.880;2023-06-26T05:59:43;97142.75;;;21.09;51.67
78206;BME280;67480;48.920;12.880;2023-06-26T06:02:08;97139.72;;;21.18;51.04
78206;BME280;67480;48.920;12.880;2023-06-26T06:04:33;97143.28;;;21.26;50.25
78206;BME280;67480;48.920;12.880;2023-06-26T06:07:00;97142.19;;;21.34;49.69
78206;BME280;67480;48.920;12.880;2023-06-26T06:09:25;97144.59;;;21.39;49.36
78206;BME280;67480;48.920;12.880;2023-06-26T06:11:50;97149.34;;;21.46;46.59
78206;BME280;67480;48.920;12.880;2023-06-26T06:14:16;97139.19;;;21.50;46.23
78206;BME280;67480;48.920;12.880;2023-06-26T06:16:41;97147.00;;;21.52;46.72
78206;BME280;67480;48.920;12.880;2023-06-26T06:19:06;97151.72;;;21.55;47.13
78206;BME280;67480;48.920;12.880;2023-06-26T06:21:32;97144.72;;;21.61;46.87
78206;BME280;67480;48.920;12.880;2023-06-26T06:23:58;97155.72;;;21.68;46.85
78206;BME280;67480;48.920;12.880;2023-06-26T06:26:23;97152.59;;;21.70;47.24
78206;BME280;67480;48.920;12.880;2023-06-26T06:28:48;97154.19;;;21.71;47.33
78206;BME280;67480;48.920;12.880;2023-06-26T06:31:14;97152.19;;;21.64;46.49
78206;BME280;67480;48.920;12.880;2023-06-26T06:33:39;97156.13;;;21.70;46.35
78206;BME280;67480;48.920;12.880;2023-06-26T06:36:05;97155.38;;;21.77;46.55
78206;BME280;67480;48.920;12.880;2023-06-26T06:38:30;97147.94;;;21.74;46.09
78206;BME280;67480;48.920;12.880;2023-06-26T06:40:55;97159.69;;;21.78;45.85
78206;BME280;67480;48.920;12.880;2023-06-26T06:43:20;97155.44;;;21.88;46.26
78206;BME280;67480;48.920;12.880;2023-06-26T06:45:46;97155.44;;;21.88;45.84
78206;BME280;67480;48.920;12.880;2023-06-26T06:48:11;97154.28;;;21.92;45.38
78206;BME280;67480;48.920;12.880;2023-06-26T06:50:36;97149.19;;;21.94;45.61
78206;BME280;67480;48.920;12.880;2023-06-26T06:53:02;97148.91;;;22.10;44.82
78206;BME280;67480;48.920;12.880;2023-06-26T06:55:27;97152.09;;;22.23;45.41
78206;BME280;67480;48.920;12.880;2023-06-26T06:57:52;97146.25;;;22.35;45.41
78206;BME280;67480;48.920;12.880;2023-06-26T07:00:18;97144.69;;;22.38;44.79
78206;BME280;67480;48.920;12.880;2023-06-26T07:02:44;97141.59;;;22.47;43.70
78206;BME280;67480;48.920;12.880;2023-06-26T07:05:10;97134.19;;;22.62;43.20
78206;BME280;67480;48.920;12.880;2023-06-26T07:07:36;97128.31;;;22.70;43.67
78206;BME280;67480;48.920;12.880;2023-06-26T07:12:33;97131.88;;;22.92;42.08
78206;BME280;67480;48.920;12.880;2023-06-26T07:14:59;97130.31;;;23.02;42.23
78206;BME280;67480;48.920;12.880;2023-06-26T07:17:24;97134.63;;;23.10;41.95
78206;BME280;67480;48.920;12.880;2023-06-26T07:19:50;97128.75;;;23.12;42.50
78206;BME280;67480;48.920;12.880;2023-06-26T07:22:15;97126.78;;;23.23;41.85
78206;BME280;67480;48.920;12.880;2023-06-26T07:24:41;97126.38;;;23.28;42.17
78206;BME280;67480;48.920;12.880;2023-06-26T07:27:06;97126.34;;;23.39;42.41
78206;BME280;67480;48.920;12.880;2023-06-26T07:29:31;97123.63;;;23.32;41.33
78206;BME280;67480;48.920;12.880;2023-06-26T07:31:57;97128.72;;;23.26;40.42
78206;BME280;67480;48.920;12.880;2023-06-26T07:34:22;97133.03;;;23.31;40.25
78206;BME280;67480;48.920;12.880;2023-06-26T07:36:47;97126.75;;;23.38;40.18
78206;BME280;67480;48.920;12.880;2023-06-26T07:39:13;97127.94;;;23.47;40.58
78206;BME280;67480;48.920;12.880;2023-06-26T07:41:38;97131.09;;;23.50;40.11
78206;BME280;67480;48.920;12.880;2023-06-26T07:44:03;97126.72;;;23.66;38.60
78206;BME280;67480;48.920;12.880;2023-06-26T07:46:29;97128.72;;;23.62;38.03
78206;BME280;67480;48.920;12.880;2023-06-26T07:48:54;97131.03;;;23.64;38.31
78206;BME280;67480;48.920;12.880;2023-06-26T07:51:20;97125.91;;;23.73;38.27
78206;BME280;67480;48.920;12.880;2023-06-26T07:53:45;97129.06;;;23.68;38.57
78206;BME280;67480;48.920;12.880;2023-06-26T07:56:10;97135.69;;;23.85;38.93
78206;BME280;67480;48.920;12.880;2023-06-26T07:58:36;97136.44;;;24.03;39.76
78206;BME280;67480;48.920;12.880;2023-06-26T08:01:01;97138.38;;;24.14;39.21
78206;BME280;67480;48.920;12.880;2023-06-26T08:03:26;97134.44;;;24.15;38.18
78206;BME280;67480;48.920;12.880;2023-06-26T08:05:52;97133.53;;;24.39;39.09
78206;BME280;67480;48.920;12.880;2023-06-26T08:08:17;97135.81;;;24.55;39.56
78206;BME280;67480;48.920;12.880;2023-06-26T08:10:42;97133.44;;;24.57;38.46
78206;BME280;67480;48.920;12.880;2023-06-26T08:13:08;97128.22;;;24.74;39.66
78206;BME280;67480;48.920;12.880;2023-06-26T08:15:33;97133.22;;;24.93;38.65
78206;BME280;67480;48.920;12.880;2023-06-26T08:17:59;97133.63;;;24.88;39.25
78206;BME280;67480;48.920;12.880;2023-06-26T08:20:24;97131.31;;;24.80;38.25
78206;BME280;67480;48.920;12.880;2023-06-26T08:22:49;97127.41;;;24.77;37.89
78206;BME280;67480;48.920;12.880;2023-06-26T08:25:17;97125.47;;;24.70;37.90
78206;BME280;67480;48.920;12.880;2023-06-26T08:27:42;97128.16;;;24.81;37.84
78206;BME280;67480;48.920;12.880;2023-06-26T08:30:08;97123.94;;;24.66;35.52
78206;BME280;67480;48.920;12.880;2023-06-26T08:32:33;97132.44;;;24.93;35.84
78206;BME280;67480;48.920;12.880;2023-06-26T08:34:59;97135.84;;;25.08;36.23
78206;BME280;67480;48.920;12.880;2023-06-26T08:37:24;97126.34;;;25.16;36.03
78206;BME280;67480;48.920;12.880;2023-06-26T08:39:49;97127.84;;;25.24;35.70
78206;BME280;67480;48.920;12.880;2023-06-26T08:42:15;97127.28;;;25.44;35.99
78206;BME280;67480;48.920;12.880;2023-06-26T08:44:40;97123.75;;;25.40;34.43
78206;BME280;67480;48.920;12.880;2023-06-26T08:47:06;97126.91;;;25.42;35.23
78206;BME280;67480;48.920;12.880;2023-06-26T08:52:15;97128.41;;;25.50;34.13
78206;BME280;67480;48.920;12.880;2023-06-26T08:54:46;97123.59;;;25.58;34.19
78206;BME280;67480;48.920;12.880;2023-06-26T08:57:15;97112.69;;;25.47;35.80
78206;BME280;67480;48.920;12.880;2023-06-26T08:59:42;97115.59;;;25.71;35.92
78206;BME280;67480;48.920;12.880;2023-06-26T09:02:08;97115.53;;;25.78;35.95
78206;BME280;67480;48.920;12.880;2023-06-26T09:04:34;97112.63;;;25.89;35.21
78206;BME280;67480;48.920;12.880;2023-06-26T09:07:00;97111.25;;;26.04;34.11
78206;BME280;67480;48.920;12.880;2023-06-26T09:09:25;97106.25;;;26.26;35.40
78206;BME280;67480;48.920;12.880;2023-06-26T09:11:50;97112.13;;;26.59;35.83
78206;BME280;67480;48.920;12.880;2023-06-26T09:14:16;97101.63;;;26.78;34.14
78206;BME280;67480;48.920;12.880;2023-06-26T09:16:41;97108.09;;;26.64;34.78
78206;BME280;67480;48.920;12.880;2023-06-26T09:19:09;97113.75;;;26.84;34.06
78206;BME280;67480;48.920;12.880;2023-06-26T09:21:36;97108.59;;;26.86;34.07
78206;BME280;67480;48.920;12.880;2023-06-26T09:24:01;97106.31;;;26.81;33.06
78206;BME280;67480;48.920;12.880;2023-06-26T09:26:26;97110.38;;;26.72;32.75
78206;BME280;67480;48.920;12.880;2023-06-26T09:28:52;97106.47;;;26.70;33.02
78206;BME280;67480;48.920;12.880;2023-06-26T09:31:17;97105.81;;;26.58;33.34
78206;BME280;67480;48.920;12.880;2023-06-26T09:33:43;97107.63;;;26.72;33.11
78206;BME280;67480;48.920;12.880;2023-06-26T09:36:20;97112.13;;;26.86;32.03
78206;BME280;67480;48.920;12.880;2023-06-26T09:38:47;97100.59;;;27.15;32.08
78206;BME280;67480;48.920;12.880;2023-06-26T09:41:16;97100.91;;;27.44;32.23
78206;BME280;67480;48.920;12.880;2023-06-26T09:43:48;97106.03;;;27.66;32.81
78206;BME280;67480;48.920;12.880;2023-06-26T09:46:33;97103.34;;;27.82;32.70
78206;BME280;67480;48.920;12.880;2023-06-26T09:49:00;97102.59;;;27.58;31.49
78206;BME280;67480;48.920;12.880;2023-06-26T09:51:26;97111.34;;;27.77;31.76
78206;BME280;67480;48.920;12.880;2023-06-26T09:53:52;97106.28;;;27.95;32.08
78206;BME280;67480;48.920;12.880;2023-06-26T09:56:17;97097.09;;;28.18;31.79
78206;BME280;67480;48.920;12.880;2023-06-26T09:58:43;97097.38;;;28.04;30.93
78206;BME280;67480;48.920;12.880;2023-06-26T10:01:09;97094.28;;;28.38;31.30
78206;BME280;67480;48.920;12.880;2023-06-26T10:03:35;97094.59;;;28.61;31.37
78206;BME280;67480;48.920;12.880;2023-06-26T10:06:02;97088.38;;;28.36;29.89
78206;BME280;67480;48.920;12.880;2023-06-26T10:08:28;97084.44;;;28.37;30.32
78206;BME280;67480;48.920;12.880;2023-06-26T10:10:53;97087.16;;;28.57;29.34
78206;BME280;67480;48.920;12.880;2023-06-26T10:13:27;97077.75;;;28.71;30.37
78206;BME280;67480;48.920;12.880;2023-06-26T10:15:57;97083.09;;;28.79;30.28
78206;BME280;67480;48.920;12.880;2023-06-26T10:18:25;97074.34;;;28.64;30.60
78206;BME280;67480;48.920;12.880;2023-06-26T10:20:54;97068.28;;;28.85;30.32
78206;BME280;67480;48.920;12.880;2023-06-26T10:23:22;97062.84;;;29.15;30.63
78206;BME280;67480;48.920;12.880;2023-06-26T10:25:52;97073.22;;;29.56;30.76
78206;BME280;67480;48.920;12.880;2023-06-26T10:28:19;97073.31;;;29.53;28.90
78206;BME280;67480;48.920;12.880;2023-06-26T10:30:48;97068.22;;;29.51;28.48
78206;BME280;67480;48.920;12.880;2023-06-26T10:33:16;97073.22;;;29.86;29.71
78206;BME280;67480;48.920;12.880;2023-06-26T10:35:45;97074.75;;;29.87;28.01
78206;BME280;67480;48.920;12.880;2023-06-26T10:38:11;97075.63;;;30.26;29.17
78206;BME280;67480;48.920;12.880;2023-06-26T10:40:41;97072.09;;;30.51;28.75
78206;BME280;67480;48.920;12.880;2023-06-26T10:43:08;97074.13;;;29.95;27.96
78206;BME280;67480;48.920;12.880;2023-06-26T10:45:35;97073.22;;;29.86;28.16
78206;BME280;67480;48.920;12.880;2023-06-26T10:48:01;97061.50;;;29.65;28.23
78206;BME280;67480;48.920;12.880;2023-06-26T10:50:31;97063.38;;;30.10;29.70
78206;BME280;67480;48.920;12.880;2023-06-26T10:55:35;97070.97;;;30.74;27.84
78206;BME280;67480;48.920;12.880;2023-06-26T10:58:01;97060.53;;;30.39;27.44
78206;BME280;67480;48.920;12.880;2023-06-26T11:00:29;97057.75;;;30.39;27.80
78206;BME280;67480;48.920;12.880;2023-06-26T11:02:55;97061.50;;;30.84;28.32
78206;BME280;67480;48.920;12.880;2023-06-26T11:05:27;97062.59;;;31.00;26.86
78206;BME280;67480;48.920;12.880;2023-06-26T11:10:28;97067.94;;;30.94;27.84
78206;BME280;67480;48.920;12.880;2023-06-26T11:12:54;97057.00;;;30.39;27.02
78206;BME280;67480;48.920;12.880;2023-06-26T11:15:25;97062.31;;;30.20;26.94
78206;BME280;67480;48.920;12.880;2023-06-26T11:17:51;97052.53;;;30.54;26.46
78206;BME280;67480;48.920;12.880;2023-06-26T11:20:17;97048.22;;;31.49;26.02
78206;BME280;67480;48.920;12.880;2023-06-26T11:22:43;97065.03;;;32.93;24.18
78206;BME280;67480;48.920;12.880;2023-06-26T11:25:10;97048.41;;;34.10;23.33
78206;BME280;67480;48.920;12.880;2023-06-26T11:30:11;97051.06;;;36.98;21.04
78206;BME280;67480;48.920;12.880;2023-06-26T11:32:47;97058.97;;;38.83;18.41
78206;BME280;67480;48.920;12.880;2023-06-26T11:35:12;97058.38;;;39.28;17.91
78206;BME280;67480;48.920;12.880;2023-06-26T11:37:37;97059.06;;;39.83;16.29
78206;BME280;67480;48.920;12.880;2023-06-26T11:40:23;97053.50;;;39.23;18.01
78206;BME280;67480;48.920;12.880;2023-06-26T11:42:52;97040.69;;;38.30;17.71
78206;BME280;67480;48.920;12.880;2023-06-26T11:45:19;97044.69;;;39.64;17.75
78206;BME280;67480;48.920;12.880;2023-06-26T11:47:44;97051.38;;;39.89;16.60
78206;BME280;67480;48.920;12.880;2023-06-26T11:50:15;97048.97;;;40.95;16.56
78206;BME280;67480;48.920;12.880;2023-06-26T11:52:44;97043.41;;;39.82;17.04
78206;BME280;67480;48.920;12.880;2023-06-26T11:55:10;97038.97;;;40.83;16.81
78206;BME280;67480;48.920;12.880;2023-06-26T11:57:36;97042.53;;;41.00;16.84
78206;BME280;67480;48.920;12.880;2023-06-26T12:00:11;97029.09;;;41.71;16.45
78206;BME280;67480;48.920;12.880;2023-06-26T12:02:37;97032.56;;;40.94;16.33
78206;BME280;67480;48.920;12.880;2023-06-26T12:05:04;97027.75;;;40.60;16.18
78206;BME280;67480;48.920;12.880;2023-06-26T12:07:29;97038.47;;;39.37;17.90
78206;BME280;67480;48.920;12.880;2023-06-26T12:09:56;97034.19;;;39.70;17.66
78206;BME280;67480;48.920;12.880;2023-06-26T12:12:24;97026.00;;;39.72;16.83
78206;BME280;67480;48.920;12.880;2023-06-26T12:14:51;97027.31;;;40.05;17.35
78206;BME280;67480;48.920;12.880;2023-06-26T12:17:17;97032.94;;;40.28;16.53
78206;BME280;67480;48.920;12.880;2023-06-26T12:19:45;97016.19;;;39.39;17.50
78206;BME280;67480;48.920;12.880;2023-06-26T12:22:13;97012.47;;;40.05;17.46
78206;BME280;67480;48.920;12.880;2023-06-26T12:24:39;97009.16;;;39.01;17.57
78206;BME280;67480;48.920;12.880;2023-06-26T12:27:09;97014.25;;;40.19;16.92
78206;BME280;67480;48.920;12.880;2023-06-26T12:29:36;97005.25;;;41.19;17.01
78206;BME280;67480;48.920;12.880;2023-06-26T12:32:01;97009.09;;;41.63;16.51
78206;BME280;67480;48.920;12.880;2023-06-26T12:34:30;97001.22;;;41.03;15.85
78206;BME280;67480;48.920;12.880;2023-06-26T12:37:04;96992.72;;;39.99;16.23
78206;BME280;67480;48.920;12.880;2023-06-26T12:39:29;96990.34;;;39.58;16.89
78206;BME280;67480;48.920;12.880;2023-06-26T12:42:00;96982.16;;;40.56;16.85
78206;BME280;67480;48.920;12.880;2023-06-26T12:44:27;96974.44;;;40.57;18.30
78206;BME280;67480;48.920;12.880;2023-06-26T12:46:55;96982.56;;;40.83;17.10
78206;BME280;67480;48.920;12.880;2023-06-26T12:49:31;96978.28;;;40.65;16.19
78206;BME280;67480;48.920;12.880;2023-06-26T12:52:00;96982.19;;;39.94;15.59
78206;BME280;67480;48.920;12.880;2023-06-26T12:54:27;96982.91;;;39.26;16.42
78206;BME280;67480;48.920;12.880;2023-06-26T12:56:52;96976.22;;;39.24;16.67
78206;BME280;67480;48.920;12.880;2023-06-26T12:59:17;96965.16;;;39.03;17.70
78206;BME280;67480;48.920;12.880;2023-06-26T13:01:43;96960.16;;;38.70;17.91
78206;BME280;67480;48.920;12.880;2023-06-26T13:04:08;96966.19;;;37.24;18.30